Time;durP1;ratioP1;P1;durP2;ratioP2;P2;SDS_P1;SDS_P2;PMS_P1;PMS_P2;Temp;Humidity;BMP_temperature;BMP_pressure;BME280_temperature;BME280_humidity;BME280_pressure;Samples;Min_cycle;Max_cycle;Signal;HPM_P1;HPM_P2
2022/01/25 00:09:59;;;;;;;0.80;0.30;;;3.00;99.90;;;;;;5067716;28;20229;-79
2022/01/25 00:15:56;;;;;;;0.50;0.50;;;2.90;99.90;;;;;;5066074;28;20223;-79
2022/01/25 00:26:23;;;;;;;0.30;0.30;;;2.50;99.90;;;;;;5065894;28;20265;-79
2022/01/25 00:29:05;;;;;;;0.47;0.47;;;2.50;99.90;;;;;;5064190;28;20205;-79
2022/01/25 00:31:32;;;;;;;0.63;0.63;;;2.60;99.90;;;;;;5074293;28;20236;-79
2022/01/25 00:33:58;;;;;;;0.20;0.20;;;2.50;99.90;;;;;;5065174;28;20174;-80
2022/01/25 00:36:25;;;;;;;0.93;0.70;;;2.40;99.90;;;;;;5064702;28;20183;-79
2022/01/25 00:38:52;;;;;;;0.50;0.20;;;2.40;99.90;;;;;;5066466;28;20179;-79
2022/01/25 00:41:19;;;;;;;0.53;0.30;;;2.40;99.90;;;;;;5066668;28;20584;-79
2022/01/25 00:43:46;;;;;;;0.50;0.50;;;2.50;99.90;;;;;;5063083;28;20206;-78
2022/01/25 00:46:12;;;;;;;0.43;0.33;;;2.40;99.90;;;;;;5064928;28;20207;-78
2022/01/25 00:54:08;;;;;;;0.30;0.30;;;2.20;99.90;;;;;;5067105;28;20272;-79
2022/01/25 00:56:37;;;;;;;0.40;0.40;;;2.30;99.90;;;;;;5064107;28;20713;-79
2022/01/25 00:59:07;;;;;;;0.20;0.20;;;2.30;99.90;;;;;;5065133;28;20217;-78
2022/01/25 01:01:34;;;;;;;0.17;0.17;;;2.20;99.90;;;;;;5066310;28;20194;-81
2022/01/25 01:04:00;;;;;;;0.40;0.40;;;2.20;99.90;;;;;;5063307;28;20239;-79
2022/01/25 01:06:26;;;;;;;1.20;1.07;;;2.20;99.90;;;;;;5064745;28;20205;-79
2022/01/25 01:08:53;;;;;;;0.93;0.93;;;2.20;99.90;;;;;;5066161;28;20205;-79
2022/01/25 01:11:28;;;;;;;0.80;0.40;;;2.20;99.90;;;;;;5064021;28;20757;-79
2022/01/25 01:30:05;;;;;;;0.63;0.50;;;2.20;99.90;;;;;;5064959;28;20216;-78
2022/01/25 01:36:01;;;;;;;0.40;0.40;;;2.20;99.90;;;;;;5049300;28;20246;-79
2022/01/25 01:38:26;;;;;;;0.13;0.13;;;2.20;99.90;;;;;;5064830;28;20192;-79
2022/01/25 01:48:30;;;;;;;1.40;0.90;;;2.20;99.90;;;;;;5064488;28;20649;-78
2022/01/25 01:51:04;;;;;;;0.47;0.20;;;2.20;99.90;;;;;;5063046;28;20214;-79
2022/01/25 01:53:30;;;;;;;1.60;0.30;;;2.10;99.90;;;;;;5062050;28;20188;-79
2022/01/25 01:55:56;;;;;;;1.03;1.03;;;2.10;99.90;;;;;;5063042;28;20186;-79
2022/01/25 01:58:21;;;;;;;0.50;0.50;;;2.10;99.90;;;;;;5063832;28;20181;-79
2022/01/25 02:00:48;;;;;;;0.30;0.30;;;2.10;99.90;;;;;;5063916;28;20211;-79
2022/01/25 02:03:14;;;;;;;0.30;0.30;;;2.10;99.90;;;;;;5063171;28;20192;-78
2022/01/25 02:05:41;;;;;;;1.17;0.93;;;2.10;99.90;;;;;;5065724;28;20546;-79
2022/01/25 02:08:07;;;;;;;0.87;0.30;;;2.10;99.90;;;;;;5064609;28;20297;-79
2022/01/25 02:10:33;;;;;;;0.37;0.30;;;2.00;99.90;;;;;;5063886;28;20383;-79
2022/01/25 02:12:58;;;;;;;0.30;0.30;;;1.90;99.90;;;;;;5067601;28;20179;-79
2022/01/25 02:15:26;;;;;;;1.30;0.70;;;1.90;99.90;;;;;;5071022;28;20339;-78
2022/01/25 02:22:24;;;;;;;0.60;0.60;;;1.90;99.90;;;;;;5068827;28;20638;-79
2022/01/25 02:23:27;;;;;;;0.10;0.10;;;1.80;99.90;;;;;;5064466;28;20272;-80
2022/01/25 02:25:56;;;;;;;0.10;0.10;;;1.80;99.90;;;;;;5060712;28;20195;-79
2022/01/25 02:28:25;;;;;;;0.20;0.20;;;1.70;99.90;;;;;;5063130;28;20187;-79
2022/01/25 02:30:51;;;;;;;0.53;0.40;;;1.70;99.90;;;;;;5062991;28;20687;-79
2022/01/25 02:33:16;;;;;;;0.97;0.43;;;1.80;99.90;;;;;;5063887;28;20189;-79
2022/01/25 02:35:42;;;;;;;0.50;0.50;;;1.80;99.90;;;;;;5064136;28;20265;-79
2022/01/25 02:38:08;;;;;;;0.23;0.23;;;1.80;99.90;;;;;;5063421;28;20190;-79
2022/01/25 02:40:34;;;;;;;0.23;0.23;;;1.80;99.90;;;;;;5064074;28;20750;-80
2022/01/25 02:42:59;;;;;;;1.73;0.80;;;1.90;99.90;;;;;;5064716;28;20562;-79
2022/01/25 02:45:32;;;;;;;0.30;0.20;;;1.90;99.90;;;;;;5062190;28;20200;-79
2022/01/25 02:50:43;;;;;;;0.87;0.87;;;1.90;99.90;;;;;;5063967;28;20201;-78
2022/01/25 02:53:08;;;;;;;0.33;0.30;;;2.00;99.90;;;;;;5063181;28;20177;-79
2022/01/25 02:55:34;;;;;;;0.83;0.83;;;1.90;99.90;;;;;;5063595;28;21130;-79
2022/01/25 02:58:00;;;;;;;0.27;0.27;;;1.90;99.90;;;;;;5062893;28;20199;-80
2022/01/25 03:00:25;;;;;;;0.30;0.30;;;1.90;99.90;;;;;;5063674;28;20568;-79
2022/01/25 03:02:51;;;;;;;3.17;0.53;;;1.90;99.90;;;;;;5063884;28;20210;-80
2022/01/25 03:05:17;;;;;;;0.33;0.33;;;1.90;99.90;;;;;;5063631;28;20182;-79
2022/01/25 03:07:44;;;;;;;7.10;0.30;;;1.80;99.90;;;;;;5064807;28;20256;-79
2022/01/25 03:10:11;;;;;;;0.20;0.20;;;1.90;99.90;;;;;;5062846;28;20252;-80
2022/01/25 03:13:15;;;;;;;0.83;0.83;;;1.90;99.90;;;;;;5065428;28;20655;-79
2022/01/25 03:15:54;;;;;;;1.87;0.97;;;1.80;99.90;;;;;;5060747;28;20198;-79
2022/01/25 03:18:39;;;;;;;0.13;0.13;;;1.80;99.90;;;;;;5063268;28;20220;-79
2022/01/25 03:23:52;;;;;;;0.10;0.10;;;1.80;99.90;;;;;;5065394;28;20189;-80
2022/01/25 03:26:18;;;;;;;0.23;0.23;;;1.80;99.90;;;;;;5063580;28;20217;-79
2022/01/25 03:28:44;;;;;;;0.20;0.10;;;1.70;99.90;;;;;;5067761;28;20243;-79
2022/01/25 03:31:10;;;;;;;0.50;0.50;;;1.70;99.90;;;;;;5066010;28;20189;-79
2022/01/25 03:33:36;;;;;;;3.80;0.60;;;1.70;99.90;;;;;;5067041;28;20602;-80
2022/01/25 03:36:02;;;;;;;0.20;0.20;;;1.60;99.90;;;;;;5066368;28;20193;-79
2022/01/25 03:38:28;;;;;;;1.30;0.57;;;1.60;99.90;;;;;;5067232;28;20210;-79
2022/01/25 03:40:54;;;;;;;0.50;0.50;;;1.60;99.90;;;;;;5067238;28;20209;-79
2022/01/25 03:43:20;;;;;;;0.43;0.40;;;1.60;99.90;;;;;;5067562;28;21274;-79
2022/01/25 03:45:58;;;;;;;0.20;0.20;;;1.60;99.90;;;;;;5067168;28;20276;-81
2022/01/25 03:50:51;;;;;;;0.07;0.07;;;1.50;99.90;;;;;;5066269;28;20702;-79
2022/01/25 03:53:18;;;;;;;0.30;0.30;;;1.40;99.90;;;;;;5066605;28;20195;-79
2022/01/25 03:55:45;;;;;;;0.77;0.67;;;1.30;99.90;;;;;;5066411;28;20178;-79
2022/01/25 03:58:11;;;;;;;1.50;0.67;;;1.20;99.90;;;;;;5066602;28;20189;-80
2022/01/25 04:00:38;;;;;;;0.10;0.10;;;1.20;99.90;;;;;;5064825;28;20692;-78
2022/01/25 04:08:10;;;;;;;0.17;0.17;;;1.40;99.90;;;;;;5067323;28;20258;-79
2022/01/25 04:10:35;;;;;;;0.50;0.50;;;1.40;99.90;;;;;;5074679;28;20292;-79
2022/01/25 04:13:01;;;;;;;0.20;0.20;;;1.40;99.90;;;;;;5067597;28;20258;-79
2022/01/25 04:15:26;;;;;;;0.30;0.30;;;1.40;99.90;;;;;;5067160;28;20641;-80
2022/01/25 04:18:03;;;;;;;0.10;0.10;;;1.50;99.90;;;;;;5067643;28;20182;-79
2022/01/25 04:20:33;;;;;;;0.37;0.37;;;1.50;99.90;;;;;;5066396;28;20235;-78
2022/01/25 04:25:43;;;;;;;0.40;0.40;;;1.30;99.90;;;;;;5067600;28;20680;-79
2022/01/25 04:28:09;;;;;;;0.47;0.47;;;1.30;99.90;;;;;;5066410;28;20236;-79
2022/01/25 04:30:34;;;;;;;0.20;0.20;;;1.40;99.90;;;;;;5065703;28;20198;-79
2022/01/25 04:33:03;;;;;;;0.20;0.20;;;1.40;99.90;;;;;;5066391;28;20880;-79
2022/01/25 04:51:41;;;;;;;0.30;0.30;;;1.60;99.90;;;;;;5067120;28;20274;-78
2022/01/25 04:57:06;;;;;;;0.57;0.57;;;1.80;99.90;;;;;;5066523;28;20200;-79
2022/01/25 04:59:39;;;;;;;0.37;0.37;;;1.90;99.90;;;;;;5066811;28;20225;-80
2022/01/25 05:02:15;;;;;;;0.10;0.10;;;2.00;99.90;;;;;;5064897;28;20217;-80
2022/01/25 05:04:47;;;;;;;0.33;0.27;;;2.00;99.90;;;;;;5067333;28;20588;-79
2022/01/25 05:10:07;;;;;;;0.10;0.10;;;2.20;99.90;;;;;;5055407;28;20703;-79
2022/01/25 05:15:28;;;;;;;0.77;0.60;;;2.20;99.90;;;;;;5065005;28;20258;-79
2022/01/25 05:18:12;;;;;;;7.50;0.63;;;2.10;99.90;;;;;;5066632;28;21220;-79
2022/01/25 05:23:22;;;;;;;0.20;0.20;;;2.30;99.90;;;;;;5063416;28;20196;-79
2022/01/25 05:25:48;;;;;;;0.30;0.20;;;2.40;99.90;;;;;;5063897;28;20176;-79
2022/01/25 05:28:13;;;;;;;0.33;0.33;;;2.40;99.90;;;;;;5065578;28;20327;-79
2022/01/25 05:30:39;;;;;;;1.60;0.80;;;2.30;99.90;;;;;;5063805;28;20244;-78
2022/01/25 05:33:04;;;;;;;0.30;0.30;;;2.30;99.90;;;;;;5064967;28;20179;-79
2022/01/25 05:35:30;;;;;;;0.30;0.30;;;2.30;99.90;;;;;;5064956;28;20292;-79
2022/01/25 05:37:56;;;;;;;0.30;0.30;;;2.30;99.90;;;;;;5066414;28;20670;-79
2022/01/25 05:40:39;;;;;;;2.20;2.10;;;2.30;99.90;;;;;;5064963;28;20208;-79
2022/01/25 05:48:11;;;;;;;2.97;0.43;;;2.40;99.90;;;;;;5064617;28;20206;-79
2022/01/25 05:50:37;;;;;;;1.63;0.90;;;2.60;99.90;;;;;;5060080;28;20724;-79
2022/01/25 05:53:03;;;;;;;1.10;0.80;;;2.60;99.90;;;;;;5063720;28;20266;-79
2022/01/25 05:55:28;;;;;;;0.40;0.40;;;2.70;99.90;;;;;;5064692;28;20643;-77
2022/01/25 05:57:54;;;;;;;0.20;0.20;;;2.70;99.90;;;;;;5067873;28;20179;-77
2022/01/25 06:00:20;;;;;;;0.20;0.20;;;2.80;99.90;;;;;;5063422;28;20305;-78
2022/01/25 06:02:47;;;;;;;0.30;0.30;;;2.80;99.90;;;;;;5064519;28;20676;-77
2022/01/25 06:05:13;;;;;;;0.10;0.10;;;2.80;99.90;;;;;;5066631;28;20264;-77
2022/01/25 06:07:39;;;;;;;0.30;0.30;;;2.80;99.90;;;;;;5065447;28;20292;-77
2022/01/25 06:10:06;;;;;;;0.13;0.13;;;2.80;99.90;;;;;;5065307;28;20195;-77
2022/01/25 06:12:32;;;;;;;0.50;0.43;;;2.90;99.90;;;;;;5062645;28;20566;-78
2022/01/25 06:14:57;;;;;;;0.17;0.17;;;3.10;99.90;;;;;;5066141;28;20190;-78
2022/01/25 06:17:23;;;;;;;1.33;0.57;;;3.10;99.90;;;;;;5066411;28;20193;-78
2022/01/25 06:19:48;;;;;;;0.10;0.10;;;3.10;99.90;;;;;;5065195;28;20205;-79
2022/01/25 06:22:15;;;;;;;0.30;0.30;;;3.10;99.90;;;;;;5065611;28;20685;-78
2022/01/25 06:24:41;;;;;;;0.20;0.20;;;3.10;99.90;;;;;;5062010;28;20245;-78
2022/01/25 06:27:07;;;;;;;0.30;0.30;;;3.10;99.90;;;;;;5059531;28;20205;-77
2022/01/25 06:29:32;;;;;;;1.47;1.37;;;3.10;99.90;;;;;;5062238;28;21159;-79
2022/01/25 06:31:59;;;;;;;0.20;0.20;;;3.20;99.90;;;;;;5060803;28;20179;-78
2022/01/25 06:34:25;;;;;;;0.40;0.40;;;3.30;99.90;;;;;;5060795;28;20178;-77
2022/01/25 06:36:50;;;;;;;1.17;0.23;;;3.30;99.90;;;;;;5064777;28;20226;-77
2022/01/25 06:39:16;;;;;;;0.70;0.70;;;3.40;99.90;;;;;;5060169;28;20212;-77
2022/01/25 06:41:42;;;;;;;0.57;0.47;;;3.50;99.90;;;;;;5062865;28;20177;-77
2022/01/25 06:44:07;;;;;;;0.30;0.30;;;3.50;99.90;;;;;;5065154;28;20183;-77
2022/01/25 06:46:33;;;;;;;0.30;0.30;;;3.40;99.90;;;;;;5061483;28;20201;-77
2022/01/25 06:48:58;;;;;;;0.20;0.20;;;3.40;99.90;;;;;;5063916;28;20176;-77
2022/01/25 06:51:24;;;;;;;0.43;0.43;;;3.40;99.90;;;;;;5062463;28;20529;-77
2022/01/25 06:53:50;;;;;;;1.00;0.97;;;3.50;99.90;;;;;;5064781;28;20249;-78
2022/01/25 06:56:15;;;;;;;0.63;0.53;;;3.50;99.90;;;;;;5062940;28;20200;-77
2022/01/25 06:58:41;;;;;;;0.40;0.40;;;3.50;99.90;;;;;;5063317;28;20207;-77
2022/01/25 07:01:08;;;;;;;2.30;0.60;;;3.60;99.90;;;;;;5062936;28;20202;-77
2022/01/25 07:03:34;;;;;;;1.20;0.57;;;3.50;99.90;;;;;;5067087;28;20209;-83
2022/01/25 07:06:00;;;;;;;0.80;0.53;;;3.60;99.90;;;;;;5065913;28;20191;-78
2022/01/25 07:08:25;;;;;;;0.67;0.67;;;3.50;99.90;;;;;;5066996;28;20186;-80
2022/01/25 07:10:51;;;;;;;2.03;0.93;;;3.60;99.90;;;;;;5069325;28;20225;-80
2022/01/25 07:13:17;;;;;;;0.30;0.30;;;3.60;99.90;;;;;;5068354;28;20175;-80
2022/01/25 07:15:42;;;;;;;1.43;0.70;;;3.70;99.90;;;;;;5066914;28;20263;-80
2022/01/25 07:18:08;;;;;;;1.27;1.13;;;3.60;99.90;;;;;;5068971;28;20181;-80
2022/01/25 07:20:33;;;;;;;1.27;1.17;;;3.60;99.90;;;;;;5067615;28;20207;-80
2022/01/25 07:22:59;;;;;;;2.43;0.63;;;3.50;99.90;;;;;;5069633;28;20201;-81
2022/01/25 07:25:26;;;;;;;0.50;0.50;;;3.60;99.90;;;;;;5067595;28;20656;-80
2022/01/25 07:27:52;;;;;;;0.90;0.63;;;3.60;99.90;;;;;;5067983;28;20200;-80
2022/01/25 07:30:17;;;;;;;0.50;0.50;;;3.60;99.90;;;;;;5068106;28;20210;-80
2022/01/25 07:32:43;;;;;;;1.40;1.20;;;3.60;99.90;;;;;;5067420;28;20571;-80
2022/01/25 07:35:09;;;;;;;0.53;0.53;;;3.70;99.90;;;;;;5067651;28;20180;-80
2022/01/25 07:37:35;;;;;;;0.50;0.50;;;3.60;99.90;;;;;;5068610;28;20180;-80
2022/01/25 07:40:00;;;;;;;0.27;0.27;;;3.60;99.90;;;;;;5066834;28;20208;-80
2022/01/25 07:42:28;;;;;;;1.03;1.03;;;3.60;99.90;;;;;;5067265;28;20262;-79
2022/01/25 07:44:55;;;;;;;2.27;1.50;;;3.60;99.90;;;;;;5066496;28;20187;-80
2022/01/25 07:47:21;;;;;;;1.33;1.30;;;3.50;99.90;;;;;;5065890;28;20686;-80
2022/01/25 07:49:47;;;;;;;2.03;1.50;;;3.50;99.90;;;;;;5067059;28;20207;-80
2022/01/25 07:52:12;;;;;;;1.17;1.07;;;3.40;99.90;;;;;;5065627;28;20185;-80
2022/01/25 07:54:38;;;;;;;2.13;1.80;;;3.40;99.90;;;;;;5062571;28;20208;-78
2022/01/25 07:57:04;;;;;;;2.67;1.50;;;3.40;99.90;;;;;;5066422;28;20187;-77
2022/01/25 07:59:29;;;;;;;1.57;1.13;;;3.30;99.90;;;;;;5061931;28;20742;-77
2022/01/25 08:01:55;;;;;;;1.23;0.53;;;3.30;99.90;;;;;;5065274;28;20184;-77
2022/01/25 08:04:20;;;;;;;1.43;1.23;;;3.30;99.90;;;;;;5072537;28;20206;-81
2022/01/25 08:06:46;;;;;;;1.03;0.97;;;3.30;99.90;;;;;;5078445;28;20206;-81
2022/01/25 08:09:12;;;;;;;1.10;1.10;;;3.30;99.90;;;;;;5075433;28;20200;-80
2022/01/25 08:11:38;;;;;;;2.57;0.67;;;3.40;99.90;;;;;;5065262;28;20190;-79
2022/01/25 08:14:17;;;;;;;0.20;0.20;;;3.50;99.90;;;;;;5065763;28;20183;-79
2022/01/25 08:16:45;;;;;;;0.60;0.57;;;3.60;99.90;;;;;;5067046;28;20170;-79
2022/01/25 08:19:11;;;;;;;1.13;0.90;;;3.70;99.90;;;;;;5066980;28;20206;-79
2022/01/25 08:21:37;;;;;;;0.60;0.60;;;3.70;99.90;;;;;;5065298;28;20235;-80
2022/01/25 08:24:06;;;;;;;0.53;0.53;;;3.70;99.90;;;;;;5067217;28;20183;-80
2022/01/25 08:26:32;;;;;;;1.00;1.00;;;3.70;99.90;;;;;;5064855;28;20684;-79
2022/01/25 08:28:57;;;;;;;1.00;0.73;;;3.70;99.90;;;;;;5073929;28;20184;-79
2022/01/25 08:31:23;;;;;;;2.07;1.17;;;3.80;99.90;;;;;;5080302;28;20187;-80
2022/01/25 08:33:49;;;;;;;0.33;0.33;;;3.90;99.90;;;;;;5080200;28;20172;-80
2022/01/25 08:36:14;;;;;;;0.97;0.97;;;4.00;99.90;;;;;;5078320;28;20200;-80
2022/01/25 08:38:40;;;;;;;1.07;1.03;;;4.00;99.90;;;;;;5066857;28;20668;-81
2022/01/25 08:41:06;;;;;;;1.60;0.97;;;4.10;99.90;;;;;;5066863;28;20211;-80
2022/01/25 08:43:33;;;;;;;2.47;1.27;;;4.20;99.90;;;;;;5068324;28;20176;-80
2022/01/25 08:45:59;;;;;;;0.40;0.40;;;4.30;99.90;;;;;;5073571;28;20653;-80
2022/01/25 08:48:25;;;;;;;0.43;0.20;;;4.40;99.90;;;;;;5063988;28;20212;-81
2022/01/25 08:50:50;;;;;;;0.80;0.77;;;4.30;99.90;;;;;;5058743;28;20193;-81
2022/01/25 08:53:17;;;;;;;1.37;0.70;;;4.40;99.90;;;;;;5059066;28;20187;-81
2022/01/25 08:55:42;;;;;;;0.57;0.57;;;4.30;99.90;;;;;;5059494;28;20288;-77
2022/01/25 08:58:08;;;;;;;0.40;0.40;;;4.40;99.90;;;;;;5055967;28;20192;-76
2022/01/25 09:00:34;;;;;;;0.30;0.30;;;4.40;99.90;;;;;;5061609;28;20250;-78
2022/01/25 09:03:02;;;;;;;0.40;0.40;;;4.50;99.90;;;;;;5062025;28;20230;-78
2022/01/25 09:05:28;;;;;;;0.73;0.70;;;4.60;99.90;;;;;;5063294;28;20196;-78
2022/01/25 09:07:57;;;;;;;0.87;0.37;;;4.70;99.90;;;;;;5066893;28;20288;-78
2022/01/25 09:10:23;;;;;;;1.13;0.93;;;4.70;99.90;;;;;;5063078;28;20311;-78
2022/01/25 09:12:49;;;;;;;1.53;1.47;;;4.70;99.90;;;;;;5061711;28;20187;-78
2022/01/25 09:15:14;;;;;;;1.07;1.03;;;4.70;99.90;;;;;;5061485;28;20191;-79
2022/01/25 09:17:40;;;;;;;1.60;0.87;;;4.80;99.90;;;;;;5064051;28;20181;-78
2022/01/25 09:20:06;;;;;;;1.00;0.93;;;4.80;99.90;;;;;;5063820;28;20283;-78
2022/01/25 09:22:31;;;;;;;0.63;0.53;;;4.90;99.90;;;;;;5060394;28;20188;-79
2022/01/25 09:24:57;;;;;;;0.57;0.57;;;4.90;99.90;;;;;;5064435;28;20285;-78
2022/01/25 09:27:22;;;;;;;0.50;0.50;;;4.90;99.90;;;;;;5065136;28;20197;-78
2022/01/25 09:29:48;;;;;;;1.23;1.13;;;5.00;99.90;;;;;;5061020;28;20206;-78
2022/01/25 09:32:13;;;;;;;1.33;1.33;;;5.10;99.90;;;;;;5061136;28;20425;-78
2022/01/25 09:34:39;;;;;;;1.30;1.20;;;5.30;99.90;;;;;;5064516;28;20562;-77
2022/01/25 09:37:05;;;;;;;0.80;0.80;;;5.40;99.90;;;;;;5064461;28;20548;-77
2022/01/25 09:39:30;;;;;;;1.23;1.13;;;5.40;99.90;;;;;;5063188;28;20577;-78
2022/01/25 09:41:56;;;;;;;1.97;1.13;;;5.50;99.90;;;;;;5066494;28;20189;-79
2022/01/25 09:44:23;;;;;;;0.57;0.57;;;5.50;99.90;;;;;;5064394;28;20626;-78
2022/01/25 09:46:53;;;;;;;1.70;0.97;;;5.50;99.90;;;;;;5064769;28;20227;-77
2022/01/25 09:49:18;;;;;;;0.93;0.93;;;5.60;99.90;;;;;;5065806;28;20193;-78
2022/01/25 09:51:45;;;;;;;3.90;1.60;;;5.60;99.90;;;;;;5065416;28;20181;-78
2022/01/25 09:54:11;;;;;;;1.33;0.80;;;5.50;99.90;;;;;;5062976;28;20248;-78
2022/01/25 09:56:37;;;;;;;1.40;0.70;;;5.40;99.90;;;;;;5061005;28;20192;-78
2022/01/25 09:59:03;;;;;;;0.50;0.50;;;5.40;99.90;;;;;;5064300;28;20189;-78
2022/01/25 10:01:31;;;;;;;0.73;0.73;;;5.40;99.90;;;;;;5063499;28;20200;-78
2022/01/25 10:03:59;;;;;;;2.03;0.93;;;5.30;99.90;;;;;;5064403;28;20226;-77
2022/01/25 10:06:31;;;;;;;1.50;1.33;;;5.40;99.90;;;;;;5061805;28;20191;-78
2022/01/25 10:08:58;;;;;;;0.60;0.60;;;5.20;99.90;;;;;;5065138;28;20634;-79
2022/01/25 10:11:25;;;;;;;0.80;0.77;;;5.30;99.90;;;;;;5063618;28;20191;-78
2022/01/25 10:13:56;;;;;;;0.53;0.53;;;5.40;99.90;;;;;;5064592;28;20184;-78
2022/01/25 10:16:36;;;;;;;2.53;1.00;;;5.40;99.90;;;;;;5063426;28;20209;-78
2022/01/25 10:19:07;;;;;;;1.10;0.87;;;5.50;99.90;;;;;;5063464;28;20188;-77
2022/01/25 10:21:39;;;;;;;2.90;0.93;;;5.60;99.90;;;;;;5063587;28;20218;-77
2022/01/25 10:24:10;;;;;;;0.60;0.60;;;5.60;99.90;;;;;;5064687;28;20180;-78
2022/01/25 10:26:39;;;;;;;0.47;0.47;;;5.60;99.90;;;;;;5063058;28;20712;-78
2022/01/25 10:29:06;;;;;;;0.60;0.60;;;5.70;99.90;;;;;;5063254;28;20177;-78
2022/01/25 10:31:37;;;;;;;1.53;1.43;;;5.70;99.90;;;;;;5062829;28;20189;-79
2022/01/25 10:34:06;;;;;;;0.97;0.97;;;5.80;99.90;;;;;;5063003;28;20193;-78
2022/01/25 10:36:31;;;;;;;0.80;0.80;;;5.80;99.90;;;;;;5066222;28;20171;-76
2022/01/25 10:38:57;;;;;;;1.90;0.90;;;5.70;99.90;;;;;;5068661;28;20231;-77
2022/01/25 10:41:27;;;;;;;1.13;1.03;;;5.80;99.90;;;;;;5068764;28;20184;-77
2022/01/25 10:43:56;;;;;;;0.90;0.90;;;5.90;99.90;;;;;;5068700;28;20317;-77
2022/01/25 10:46:28;;;;;;;1.67;1.57;;;5.80;99.90;;;;;;5066222;28;20249;-77
2022/01/25 10:48:58;;;;;;;1.13;1.03;;;5.80;99.90;;;;;;5068534;28;20555;-77
2022/01/25 10:51:49;;;;;;;1.40;1.30;;;5.80;99.90;;;;;;5065796;28;20234;-77
2022/01/25 10:54:22;;;;;;;2.77;0.93;;;5.80;99.90;;;;;;5063816;28;20625;-77
2022/01/25 10:56:49;;;;;;;0.60;0.60;;;5.90;99.90;;;;;;5066833;28;20216;-78
2022/01/25 10:59:28;;;;;;;0.50;0.50;;;5.80;99.90;;;;;;5068115;28;20232;-78
2022/01/25 11:01:56;;;;;;;1.20;0.97;;;5.70;99.90;;;;;;5066584;28;20177;-77
2022/01/25 11:04:31;;;;;;;0.43;0.43;;;5.70;99.90;;;;;;5068402;28;20552;-77
2022/01/25 11:07:06;;;;;;;0.67;0.67;;;5.60;99.90;;;;;;5068209;28;20204;-79
2022/01/25 11:09:41;;;;;;;0.63;0.63;;;5.70;99.90;;;;;;5069200;28;20809;-78
2022/01/25 11:12:10;;;;;;;0.63;0.50;;;5.70;99.90;;;;;;5067628;28;20183;-80
2022/01/25 11:14:57;;;;;;;0.87;0.87;;;5.70;99.90;;;;;;5067314;28;20181;-80
2022/01/25 11:17:28;;;;;;;0.40;0.40;;;5.80;99.90;;;;;;5067606;28;20256;-78
2022/01/25 11:19:55;;;;;;;1.30;0.93;;;5.90;99.90;;;;;;5069713;28;20230;-78
2022/01/25 11:22:21;;;;;;;2.10;0.63;;;6.00;99.90;;;;;;5066101;28;20729;-78
2022/01/25 11:24:50;;;;;;;0.93;0.40;;;6.00;99.90;;;;;;5064157;28;20192;-78
2022/01/25 11:27:17;;;;;;;0.97;0.77;;;6.00;99.90;;;;;;5065409;28;20254;-78
2022/01/25 11:29:45;;;;;;;0.70;0.70;;;6.10;99.90;;;;;;5066956;28;20197;-78
2022/01/25 11:32:18;;;;;;;0.40;0.40;;;6.10;99.90;;;;;;5066791;28;20181;-78
2022/01/25 11:34:45;;;;;;;3.37;0.70;;;6.10;99.90;;;;;;5064541;28;20221;-79
2022/01/25 11:37:11;;;;;;;6.03;1.47;;;6.20;99.90;;;;;;5066771;28;20898;-79
2022/01/25 11:39:45;;;;;;;2.03;1.07;;;6.10;99.90;;;;;;5066719;28;20204;-80
2022/01/25 11:42:14;;;;;;;1.33;1.13;;;6.10;99.90;;;;;;5066906;28;20631;-79
2022/01/25 11:44:48;;;;;;;1.07;1.07;;;6.00;99.90;;;;;;5066937;28;20678;-78
2022/01/25 11:47:16;;;;;;;0.57;0.57;;;6.00;99.90;;;;;;5064894;28;20223;-78
2022/01/25 11:50:04;;;;;;;1.23;0.70;;;6.00;99.90;;;;;;5066126;28;20209;-78
2022/01/25 11:52:31;;;;;;;0.80;0.80;;;6.00;99.90;;;;;;5068010;28;20274;-80
2022/01/25 11:55:23;;;;;;;0.70;0.67;;;6.00;99.90;;;;;;5063900;28;20273;-78
2022/01/25 11:57:57;;;;;;;2.17;1.43;;;6.00;99.90;;;;;;5061681;28;20196;-79
2022/01/25 12:00:45;;;;;;;0.63;0.57;;;6.00;99.90;;;;;;5065846;28;20220;-79
2022/01/25 12:03:40;;;;;;;0.93;0.80;;;6.10;99.90;;;;;;5067086;28;20741;-79
2022/01/25 12:06:27;;;;;;;0.33;0.33;;;6.10;99.90;;;;;;5060394;28;20192;-79
2022/01/25 12:09:06;;;;;;;1.40;0.50;;;6.20;99.90;;;;;;5067325;28;20287;-79
2022/01/25 12:12:22;;;;;;;1.83;1.70;;;6.20;99.90;;;;;;5067165;28;20631;-79
2022/01/25 12:14:31;;;;;;;4.00;0.93;;;6.20;99.90;;;;;;5059761;28;20192;-79
2022/01/25 12:17:03;;;;;;;0.60;0.60;;;6.20;99.90;;;;;;5064519;28;20594;-78
2022/01/25 12:19:37;;;;;;;1.37;1.37;;;6.30;99.90;;;;;;5066991;28;20284;-79
2022/01/25 12:22:41;;;;;;;0.90;0.53;;;6.20;99.90;;;;;;5065405;28;20264;-78
2022/01/25 12:27:58;;;;;;;3.23;0.77;;;6.00;99.90;;;;;;5066075;28;20673;-79
2022/01/25 12:30:38;;;;;;;1.70;0.47;;;6.10;99.90;;;;;;5066038;28;20209;-78
2022/01/25 12:33:10;;;;;;;0.73;0.50;;;6.00;99.90;;;;;;5065646;28;20171;-77
2022/01/25 12:35:41;;;;;;;0.57;0.57;;;6.10;99.90;;;;;;5064709;28;20238;-78
2022/01/25 12:38:18;;;;;;;1.30;1.20;;;6.10;99.90;;;;;;5066799;28;20222;-78
2022/01/25 12:41:12;;;;;;;2.80;1.73;;;6.00;99.90;;;;;;5065362;28;20215;-78
2022/01/25 12:43:47;;;;;;;2.97;1.20;;;6.10;99.90;;;;;;5067321;28;20230;-79
2022/01/25 12:46:16;;;;;;;0.33;0.33;;;6.10;99.90;;;;;;5064020;28;20181;-79
2022/01/25 12:48:46;;;;;;;1.17;1.00;;;6.10;99.90;;;;;;5067476;28;20181;-81
2022/01/25 12:51:17;;;;;;;0.73;0.73;;;6.10;99.90;;;;;;5066314;28;20169;-79
2022/01/25 12:53:45;;;;;;;1.53;1.43;;;6.10;99.90;;;;;;5063675;28;20310;-80
2022/01/25 12:56:35;;;;;;;1.27;0.77;;;6.10;99.90;;;;;;5059962;28;20534;-83
2022/01/25 12:59:04;;;;;;;1.87;1.07;;;6.10;99.90;;;;;;5057663;28;20809;-79
2022/01/25 13:01:32;;;;;;;1.20;0.50;;;6.00;99.90;;;;;;5057884;28;20198;-78
2022/01/25 13:04:03;;;;;;;1.10;1.00;;;6.00;99.90;;;;;;5059400;28;20295;-79
2022/01/25 13:06:33;;;;;;;1.27;0.60;;;6.00;99.90;;;;;;5060675;28;20194;-79
2022/01/25 13:09:18;;;;;;;0.73;0.73;;;6.10;99.90;;;;;;5059190;28;20175;-78
2022/01/25 13:16:55;;;;;;;0.70;0.70;;;6.00;99.90;;;;;;5063411;28;20223;-79
2022/01/25 13:19:25;;;;;;;0.57;0.40;;;5.90;99.90;;;;;;5063180;28;20282;-79
2022/01/25 13:22:00;;;;;;;1.30;0.73;;;6.00;99.90;;;;;;5064842;28;20238;-78
2022/01/25 13:24:30;;;;;;;0.73;0.73;;;5.90;99.90;;;;;;5064010;28;20188;-79
2022/01/25 13:27:02;;;;;;;0.30;0.30;;;5.60;99.90;;;;;;5057318;28;20287;-79
2022/01/25 13:32:21;;;;;;;0.93;0.70;;;5.60;99.90;;;;;;5062211;28;20306;-78
2022/01/25 13:35:27;;;;;;;1.20;0.87;;;5.60;99.90;;;;;;5061374;28;20188;-78
2022/01/25 13:38:18;;;;;;;1.10;1.07;;;5.30;99.90;;;;;;5041033;28;21026;-78
2022/01/25 13:46:36;;;;;;;0.60;0.50;;;5.10;99.90;;;;;;5063518;28;20234;-77
2022/01/25 13:49:13;;;;;;;0.50;0.50;;;5.00;99.90;;;;;;5062008;28;20663;-79
2022/01/25 13:51:46;;;;;;;2.17;1.93;;;5.00;99.90;;;;;;5069842;28;20586;-80
2022/01/25 13:54:15;;;;;;;1.10;0.40;;;5.10;99.90;;;;;;5065515;28;20181;-82
2022/01/25 13:56:41;;;;;;;1.00;0.50;;;5.20;99.90;;;;;;5055485;28;20189;-81
2022/01/25 13:59:08;;;;;;;1.50;1.07;;;5.30;99.90;;;;;;5054290;28;20225;-81
2022/01/25 14:01:36;;;;;;;1.27;1.10;;;5.50;99.90;;;;;;5054990;28;20187;-81
2022/01/25 14:04:07;;;;;;;1.40;1.30;;;5.40;99.90;;;;;;5057395;28;20184;-82
2022/01/25 14:06:38;;;;;;;1.70;1.60;;;5.40;99.90;;;;;;5071893;28;20185;-82
2022/01/25 14:09:14;;;;;;;0.83;0.83;;;5.30;99.90;;;;;;5062714;28;20667;-81
2022/01/25 14:22:49;;;;;;;4.80;0.53;;;5.00;99.90;;;;;;5066360;28;20597;-79
2022/01/25 14:25:46;;;;;;;0.70;0.70;;;5.20;99.90;;;;;;5048611;28;20245;-78
2022/01/25 14:28:20;;;;;;;0.77;0.77;;;5.30;99.90;;;;;;5058100;28;20240;-80
2022/01/25 14:30:48;;;;;;;1.70;1.13;;;4.90;99.90;;;;;;5061971;28;20703;-80
2022/01/25 14:33:16;;;;;;;1.27;0.97;;;4.90;99.90;;;;;;5063157;28;20189;-78
2022/01/25 14:35:43;;;;;;;1.70;1.40;;;4.90;99.90;;;;;;5062412;28;20215;-78
2022/01/25 14:38:15;;;;;;;0.40;0.40;;;5.00;99.90;;;;;;5064280;28;20303;-78
2022/01/25 14:40:40;;;;;;;0.53;0.53;;;4.90;99.90;;;;;;5060252;28;20236;-78
2022/01/25 14:43:08;;;;;;;0.73;0.73;;;5.10;99.90;;;;;;5066125;28;20220;-78
2022/01/25 14:45:34;;;;;;;1.27;1.17;;;5.10;99.90;;;;;;5061798;28;20186;-77
2022/01/25 14:48:01;;;;;;;1.33;1.23;;;5.20;99.90;;;;;;5065608;28;20193;-78
2022/01/25 14:50:33;;;;;;;1.57;1.47;;;5.20;99.90;;;;;;5061008;28;20193;-79
2022/01/25 14:53:07;;;;;;;0.77;0.77;;;5.30;99.90;;;;;;5061926;28;20177;-78
2022/01/25 14:55:34;;;;;;;0.73;0.60;;;5.30;99.90;;;;;;5061027;28;20650;-78
2022/01/25 15:00:52;;;;;;;1.17;0.70;;;5.40;99.90;;;;;;5063317;28;20223;-79
2022/01/25 15:03:20;;;;;;;0.73;0.73;;;5.40;99.90;;;;;;5065973;28;21058;-79
2022/01/25 15:05:46;;;;;;;0.93;0.90;;;5.50;99.90;;;;;;5062073;28;20187;-78
2022/01/25 15:08:13;;;;;;;3.73;1.07;;;4.90;99.90;;;;;;5061080;28;20202;-78
2022/01/25 15:10:44;;;;;;;0.67;0.63;;;4.80;99.90;;;;;;5061254;28;20200;-78
2022/01/25 15:13:10;;;;;;;2.27;2.03;;;4.90;99.90;;;;;;5062993;28;20183;-79
2022/01/25 15:15:54;;;;;;;4.53;0.87;;;5.00;99.90;;;;;;5065820;28;20185;-79
2022/01/25 15:18:32;;;;;;;0.50;0.50;;;5.10;99.90;;;;;;5067418;28;20181;-80
2022/01/25 15:21:00;;;;;;;1.47;1.37;;;5.10;99.90;;;;;;5072026;28;20203;-80
2022/01/25 15:23:28;;;;;;;1.37;0.93;;;5.10;99.90;;;;;;5068026;28;20215;-81